Terminal Aerodrome Forecast
Issued by NWS

Home | Current Version | Previous Version | Text Only | Print | Product List | Glossary On
Versions: 1 2 3 4 5 6 7 8 9 10 11 12 13 14 15 16 17 18 19 20 21 22 23
000
FTUS43 KDLH 131745
TAFBRD
TAF
KBRD 131745Z 1318/1418 11007KT P6SM VCSH SCT040 OVC060
     FM131900 11008KT 4SM -RA BR VCTS SCT015 OVC030CB
     FM132200 11005KT 6SM -SHRA BR SCT020 OVC050
     FM140400 11004KT 3SM BR VCSH OVC025
     FM141300 06005KT P6SM BKN030 OVC070=

USA.gov is the U.S. government's official web portal to all federal, state and local government web resources and services.